Terminal Aerodrome Forecast
Issued by NWS Wilmington, OH

Current Version | Previous Version | Graphics & Text | Print | Product List | Glossary On
Versions: 1 2 3 4 5 6 7 8 9 10 11 12 13 14 15 16 17 18 19 20 21 22 23 24 25 26 27
615
FTUS41 KILN 171415 AAA
TAFCMH
TAF AMD
KCMH 171415Z 1714/1812 12006KT P6SM BKN035
     FM171800 17007KT 5SM -RASN BKN015 OVC070
     FM172000 18006KT P6SM -RA OVC015
     FM180000 23006KT P6SM -SN OVC008
     FM180300 24009KT P6SM VCSH OVC015
     FM180600 29007KT P6SM OVC012=

USA.gov is the U.S. government's official web portal to all federal, state and local government web resources and services.